• Join FlightAware (Why Join?)
  • Login
  • US Flag 
05:54PM EDT


 

Airport Tracker/Info


-or-


 

Live Flight TrackerFlight Track Log ✈ AWE593 ✈ 10-Nov-2013 ✈ KCLT - KPHX

Flight Track Log - Related Links

Times and Time Zones

All times are in EST time to prevent confusion due to time zone crossing. See the AWE593 flight status page for this flight to view local times or setup timezone preferences in your user account.

Time Position Orientation Groundspeed Altitude Reporting Facility
EST Latitude Longitude Course Direction KTS MPH feet Rate Location/Type
04:34PM 35.2510 -80.9620 323° Northwest 173 199 2,200  Level FlightAware
04:34PM 35.2760 -80.9880 320° Northwest 214 246 2,800 1,080 Climbing FlightAware
04:35PM 35.2940 -81.0230 302° West 248 285 3,500 2,100 Climbing FlightAware
04:36PM 35.2760 -81.1030 255° West 264 304 5,900 2,580 Climbing FlightAware
04:36PM 35.2660 -81.1440 253° West 262 302 7,200 2,220 Climbing FlightAware
04:37PM 35.2580 -81.1780 254° West 258 297 7,900 2,160 Climbing FlightAware
04:37PM 35.2440 -81.2360 254° West 265 305 9,600 2,040 Climbing FlightAware
04:38PM 35.2340 -81.2770 253° West 283 326 10,300 1,620 Climbing FlightAware
04:39PM 35.2030 -81.4000 253° West 326 375 12,400 1,620 Climbing FlightAware
04:40PM 35.1880 -81.4600 253° West 344 396 13,200 1,860 Climbing FlightAware
04:40PM 35.1630 -81.5610 253° West 352 405 15,100 2,100 Climbing FlightAware
04:41PM 35.1410 -81.6520 254° West 354 407 16,800 2,040 Climbing FlightAware
04:42PM 35.1320 -81.7290 262° West 356 410 18,100 1,800 Climbing FlightAware
04:43PM 35.1260 -81.8050 265° West 364 419 19,100 1,560 Climbing FlightAware
04:43PM 35.1210 -81.8690 265° West 368 423 19,900 1,380 Climbing FlightAware
04:44PM 35.1130 -81.9770 265° West 381 438 21,000 1,320 Climbing FlightAware
04:45PM 35.0996 -82.1364 264° West 393 452 22,700 1,380 Climbing FlightAware ADS-B
04:46PM 35.0941 -82.2046 264° West 395 455 23,400 1,320 Climbing FlightAware ADS-B
04:46PM 35.0915 -82.2466 266° West 396 456 23,800 1,200 Climbing FlightAware ADS-B
04:46PM 35.0928 -82.2710 274° West 396 456 24,000 1,080 Climbing FlightAware ADS-B
04:46PM 35.0969 -82.2958 281° West 399 459 24,200 1,140 Climbing FlightAware ADS-B
04:47PM 35.1136 -82.3614 287° West 403 464 24,800 1,020 Climbing FlightAware ADS-B
04:47PM 35.1312 -82.4297 288° West 409 471 25,300 960 Climbing FlightAware ADS-B
04:48PM 35.1502 -82.5040 287° West 413 475 25,900 1,020 Climbing FlightAware ADS-B
04:49PM 35.1770 -82.6100 287° West 418 481 26,700 960 Climbing FlightAware
04:49PM 35.2031 -82.7114 288° West 421 484 27,400 1,080 Climbing FlightAware ADS-B
04:50PM 35.2212 -82.7834 287° West 420 483 28,100 1,800 Climbing FlightAware ADS-B
04:50PM 35.2387 -82.8525 287° West 412 474 29,300 2,040 Climbing FlightAware ADS-B
04:51PM 35.2554 -82.9182 287° West 393 452 30,200 2,220 Climbing FlightAware ADS-B
04:52PM 35.2721 -82.9841 287° West 369 425 31,600 1,680 Climbing FlightAware ADS-B
04:52PM 35.2875 -83.0454 287° West 370 426 32,000 360 Climbing FlightAware ADS-B
04:53PM 35.3035 -83.1098 287° West 380 437 32,000  Level FlightAware ADS-B
04:53PM 35.3206 -83.1779 287° West 386 444 32,000  Level FlightAware ADS-B
04:54PM 35.3367 -83.2425 287° West 385 443 32,000  Level FlightAware ADS-B
04:54PM 35.3547 -83.3154 287° West 388 447 32,000  Level FlightAware ADS-B
04:55PM 35.3790 -83.4132 287° West 388 447 32,000  Level FlightAware ADS-B
04:56PM 35.3952 -83.4784 287° West 388 447 32,000  Level FlightAware ADS-B
04:56PM 35.4108 -83.5418 287° West 388 447 32,000  Level FlightAware ADS-B
04:57PM 35.4266 -83.6064 287° West 389 448 32,000  Level FlightAware ADS-B
04:57PM 35.4424 -83.6706 287° West 390 449 32,000  Level FlightAware ADS-B
04:58PM 35.4581 -83.7349 287° West 390 449 32,000  Level FlightAware ADS-B
04:58PM 35.4740 -83.8001 287° West 389 448 32,000  Level FlightAware ADS-B
04:59PM 35.4900 -83.8657 287° West 390 449 32,000  Level FlightAware ADS-B
04:59PM 35.5060 -83.9319 287° West 391 450 32,000  Level FlightAware ADS-B
05:00PM 35.5222 -83.9990 287° West 390 449 32,000  Level FlightAware ADS-B
05:00PM 35.5397 -84.0714 287° West 391 450 32,000  Level FlightAware ADS-B
05:01PM 35.5554 -84.1364 287° West 391 450 32,000  Level FlightAware ADS-B
05:01PM 35.5701 -84.1976 286° West 390 449 32,000  Level FlightAware ADS-B
05:02PM 35.5855 -84.2626 286° West 383 441 32,000  Level FlightAware ADS-B
05:02PM 35.6011 -84.3277 286° West 384 442 32,000  Level FlightAware ADS-B
05:03PM 35.6164 -84.3921 286° West 384 442 32,000  Level FlightAware ADS-B
05:03PM 35.6318 -84.4567 286° West 384 442 32,000  Level FlightAware ADS-B
05:04PM 35.6468 -84.5196 286° West 384 442 32,000  Level FlightAware ADS-B
05:04PM 35.6616 -84.5825 286° West 384 442 32,000  Level FlightAware ADS-B
05:05PM 35.6772 -84.6485 286° West 385 443 32,000  Level FlightAware ADS-B
05:05PM 35.6920 -84.7114 286° West 382 440 32,000  Level FlightAware ADS-B
05:06PM 35.7077 -84.7775 286° West 383 441 32,000  Level FlightAware ADS-B
05:06PM 35.7229 -84.8436 286° West 386 444 32,000  Level FlightAware ADS-B
05:07PM 35.7386 -84.9102 286° West 383 441 32,000  Level FlightAware ADS-B
05:07PM 35.7550 -84.9804 286° West 383 441 32,000  Level FlightAware ADS-B
05:08PM 35.7715 -85.0517 286° West 389 448 32,000  Level FlightAware ADS-B
05:08PM 35.7865 -85.1172 286° West 393 452 32,000  Level FlightAware ADS-B
05:09PM 35.8016 -85.1826 286° West 392 451 32,000  Level FlightAware ADS-B
05:09PM 35.8163 -85.2459 286° West 392 451 32,000  Level FlightAware ADS-B
05:10PM 35.8325 -85.3163 286° West 392 451 32,000  Level FlightAware ADS-B
05:11PM 35.8477 -85.3827 286° West 392 451 32,000  Level FlightAware ADS-B
05:11PM 35.8635 -85.4515 286° West 393 452 32,000  Level FlightAware ADS-B
05:12PM 35.8791 -85.5197 286° West 392 451 32,000  Level FlightAware ADS-B
05:12PM 35.8940 -85.5856 286° West 392 451 32,000  Level FlightAware ADS-B
05:13PM 35.9091 -85.6522 286° West 393 452 32,000  Level FlightAware ADS-B
05:13PM 35.9247 -85.7219 285° West 394 453 32,000  Level FlightAware ADS-B
05:14PM 35.9488 -85.8295 285° West 395 455 32,000  Level FlightAware ADS-B
05:14PM 35.9638 -85.8963 286° West 396 456 32,000  Level FlightAware ADS-B
05:15PM 35.9799 -85.9684 285° West 396 456 32,000  Level FlightAware ADS-B
05:16PM 35.9947 -86.0352 285° West 396 456 32,000  Level FlightAware ADS-B
05:16PM 36.0098 -86.1025 286° West 397 457 32,000  Level FlightAware ADS-B
05:17PM 36.0246 -86.1699 285° West 397 457 32,000  Level FlightAware ADS-B
05:17PM 36.0400 -86.2396 285° West 398 458 32,000  Level FlightAware ADS-B
05:18PM 36.0558 -86.3114 285° West 398 458 32,000  Level FlightAware ADS-B
05:18PM 36.0704 -86.3777 285° West 399 459 32,000  Level FlightAware ADS-B
05:19PM 36.0852 -86.4453 285° West 399 459 32,000  Level FlightAware ADS-B
05:19PM 36.0999 -86.5125 285° West 398 458 32,000  Level FlightAware ADS-B
05:20PM 36.1143 -86.5793 285° West 399 459 32,000  Level FlightAware ADS-B
05:20PM 36.1279 -86.6422 285° West 398 458 32,000  Level FlightAware ADS-B
05:21PM 36.1385 -86.7238 279° West 398 458 32,000  Level FlightAware ADS-B
05:22PM 36.1440 -86.8440 273° West 398 458 32,000  Level FlightAware
05:22PM 36.1480 -86.9350 273° West 398 458 32,000  Level FlightAware
05:23PM 36.1520 -87.0290 273° West 397 457 32,000  Level FlightAware
05:24PM 36.1570 -87.1470 273° West 398 458 32,000  Level FlightAware
05:25PM 36.1620 -87.2750 273° West 398 458 32,000  Level FlightAware
05:25PM 36.1640 -87.3190 273° West 399 459 32,000  Level FlightAware
05:26PM 36.1680 -87.4360 272° West 399 459 32,000  Level FlightAware
05:27PM 36.1730 -87.5600 273° West 399 459 32,000  Level FlightAware
05:28PM 36.1770 -87.6700 273° West 399 459 32,000  Level FlightAware
05:29PM 36.1810 -87.7930 272° West 399 459 32,000  Level FlightAware
05:29PM 36.1830 -87.8610 272° West 399 459 32,000  Level FlightAware
05:30PM 36.1860 -87.9260 273° West 400 460 32,000  Level FlightAware
05:31PM 36.1910 -88.0770 272° West 401 461 32,000  Level FlightAware
05:32PM 36.1950 -88.1970 272° West 402 463 32,000  Level FlightAware
05:33PM 36.1990 -88.3340 272° West 402 463 32,000  Level FlightAware
05:33PM 36.2010 -88.4150 272° West 402 463 32,000  Level FlightAware
05:34PM 36.2030 -88.4850 272° West 402 463 32,000  Level FlightAware
05:34PM 36.2060 -88.5790 272° West 402 463 32,000  Level FlightAware
05:35PM 36.2100 -88.7010 272° West 402 463 32,000  Level FlightAware
05:36PM 36.2110 -88.7480 272° West 402 463 32,000  Level FlightAware
05:36PM 36.2130 -88.8200 272° West 402 463 32,000  Level FlightAware
05:37PM 36.2160 -88.9200 272° West 402 463 32,000  Level FlightAware
05:38PM 36.2190 -89.0160 272° West 402 463 32,000  Level FlightAware
05:39PM 36.2220 -89.2050 271° West 404 465 32,000  Level FlightAware
05:40PM 36.2260 -89.3670 272° West 405 466 32,000  Level FlightAware
05:41PM 36.2290 -89.4830 272° West 405 466 32,000  Level FlightAware
05:42PM 36.2310 -89.6050 271° West 406 467 32,000  Level FlightAware
05:42PM 36.2330 -89.6850 272° West 406 467 32,000  Level FlightAware
05:43PM 36.2350 -89.8190 271° West 406 467 32,000  Level FlightAware
05:44PM 36.2360 -89.8880 271° West 406 467 32,000  Level FlightAware
05:45PM 36.2390 -90.0060 272° West 406 467 32,000  Level FlightAware
05:46PM 36.2400 -90.1030 271° West 406 467 32,000  Level FlightAware
05:46PM 36.2410 -90.1980 271° West 406 467 32,000  Level FlightAware
05:47PM 36.2430 -90.2890 272° West 406 467 32,000  Level FlightAware
05:48PM 36.2460 -90.4780 271° West 407 468 32,000  Level FlightAware
05:49PM 36.2470 -90.5800 271° West 406 467 32,000  Level FlightAware
05:50PM 36.2480 -90.7010 271° West 407 468 32,000  Level FlightAware
05:50PM 36.2500 -90.8270 271° West 406 467 32,000  Level FlightAware
05:51PM 36.2510 -90.9580 271° West 406 467 32,000  Level FlightAware
05:52PM 36.2520 -91.1060 271° West 407 468 32,000  Level FlightAware
05:53PM 36.2530 -91.2140 271° West 408 470 32,000  Level FlightAware
05:54PM 36.2530 -91.3210 270° West 408 470 32,000  Level FlightAware
05:55PM 36.2540 -91.3940 271° West 409 471 32,000  Level FlightAware
05:55PM 36.2540 -91.4970 270° West 410 472 32,000  Level FlightAware
05:56PM 36.2550 -91.6040 271° West 410 472 32,000  Level FlightAware
05:57PM 36.2550 -91.6880 270° West 410 472 32,000  Level FlightAware
05:57PM 36.2550 -91.7720 270° West 410 472 32,000  Level FlightAware
05:58PM 36.2550 -91.8510 270° West 410 472 32,000  Level FlightAware
05:58PM 36.2560 -91.9390 271° West 409 471 32,000  Level FlightAware
05:59PM 36.2550 -92.0110 269° West 408 470 32,000  Level FlightAware
06:00PM 36.2550 -92.1270 270° West 407 468 32,000  Level FlightAware
06:00PM 36.2550 -92.1630 270° West 406 467 32,000  Level FlightAware
06:01PM 36.2550 -92.3080 270° West 405 466 32,000  Level FlightAware
06:02PM 36.2550 -92.4040 270° West 404 465 32,000  Level FlightAware
06:02PM 36.2550 -92.4740 270° West 404 465 32,000  Level FlightAware
06:03PM 36.2540 -92.5590 269° West 404 465 32,000  Level FlightAware
06:04PM 36.2540 -92.6780 270° West 405 466 32,000  Level FlightAware
06:05PM 36.2530 -92.8210 270° West 405 466 32,000  Level FlightAware
06:05PM 36.2520 -92.8780 269° West 404 465 32,000  Level FlightAware
06:06PM 36.2520 -92.9890 270° West 403 464 32,000  Level FlightAware
06:06PM 36.2510 -93.0600 269° West 402 463 32,000  Level FlightAware
06:07PM 36.2500 -93.1800 269° West 401 461 32,000  Level FlightAware
06:08PM 36.2490 -93.2910 269° West 400 460 32,000  Level FlightAware
06:09PM 36.2470 -93.4200 269° West 401 461 32,000  Level FlightAware
06:10PM 36.2470 -93.4840 270° West 401 461 32,000  Level FlightAware
06:11PM 36.2450 -93.6170 269° West 402 463 32,000  Level FlightAware
06:11PM 36.2440 -93.7220 269° West 403 464 32,000  Level FlightAware
06:12PM 36.2430 -93.7860 269° West 403 464 32,000  Level FlightAware
06:13PM 36.2410 -93.9150 269° West 403 464 32,000  Level FlightAware
06:13PM 36.2400 -93.9710 269° West 403 464 32,000  Level FlightAware
06:14PM 36.2380 -94.0730 269° West 403 464 32,000  Level FlightAware
06:14PM 36.2360 -94.1560 268° West 403 464 32,000  Level FlightAware
06:16PM 36.2340 -94.3150 269° West 404 465 32,000  Level FlightAware
06:17PM 36.2310 -94.4430 268° West 404 465 32,000  Level FlightAware
06:17PM 36.2300 -94.5050 269° West 403 464 32,000  Level FlightAware
06:18PM 36.2280 -94.6070 269° West 403 464 32,000  Level FlightAware
06:19PM 36.2250 -94.7450 268° West 403 464 32,000  Level FlightAware
06:19PM 36.2240 -94.8010 269° West 403 464 32,000  Level FlightAware
06:20PM 36.2200 -94.9310 268° West 403 464 32,000  Level FlightAware
06:20PM 36.2190 -94.9950 269° West 403 464 32,000  Level FlightAware
06:21PM 36.2150 -95.1270 268° West 403 464 32,000  Level FlightAware
06:22PM 36.2140 -95.1900 269° West 403 464 32,000  Level FlightAware
06:22PM 36.2120 -95.2560 268° West 404 465 32,000  Level FlightAware
06:23PM 36.2080 -95.3920 268° West 405 466 32,000  Level FlightAware
06:24PM 36.2070 -95.4510 269° West 405 466 32,000  Level FlightAware
06:25PM 36.2030 -95.5720 268° West 407 468 32,000  Level FlightAware
06:25PM 36.2000 -95.6790 268° West 408 470 32,000  Level FlightAware
06:26PM 36.1970 -95.7590 267° West 408 470 32,000  Level FlightAware
06:27PM 36.1920 -95.8840 267° West 409 471 32,000  Level FlightAware
06:27PM 36.1880 -95.9660 267° West 409 471 32,000 60 Level FlightAware
06:28PM 36.1850 -96.0410 267° West 408 470 32,100  Climbing FlightAware
06:29PM 36.1800 -96.1440 267° West 407 468 32,000 -120 Descending FlightAware
06:30PM 36.1740 -96.2590 266° West 406 467 32,000  Level FlightAware
06:30PM 36.1680 -96.3700 266° West 405 466 32,000  Level FlightAware
06:31PM 36.1610 -96.5040 266° West 404 465 32,000  Level FlightAware
06:32PM 36.1570 -96.5900 267° West 404 465 32,000  Level FlightAware
06:32PM 36.1530 -96.6640 266° West 402 463 32,000  Level FlightAware
06:33PM 36.1450 -96.8040 266° West 400 460 32,000  Level FlightAware
06:34PM 36.1390 -96.9170 266° West 399 459 32,000  Level FlightAware
06:35PM 36.1320 -97.0420 266° West 396 456 32,000  Level FlightAware
06:36PM 36.1250 -97.1680 266° West 395 455 32,000  Level FlightAware
06:37PM 36.1180 -97.2860 266° West 395 455 32,000  Level FlightAware
06:38PM 36.1110 -97.4040 266° West 397 457 32,000  Level FlightAware
06:39PM 36.1030 -97.5290 266° West 397 457 32,000  Level FlightAware
06:39PM 36.0990 -97.6030 266° West 396 456 32,000  Level FlightAware
06:40PM 36.0940 -97.6860 266° West 394 453 32,000  Level FlightAware
06:40PM 36.0900 -97.7510 266° West 394 453 32,000  Level FlightAware
06:41PM 36.0830 -97.8630 266° West 394 453 32,000  Level FlightAware
06:42PM 36.0740 -97.9980 265° West 396 456 32,000  Level FlightAware
06:43PM 36.0660 -98.1200 265° West 398 458 32,000  Level FlightAware
06:44PM 36.0580 -98.2420 265° West 400 460 32,000 60 Level FlightAware
06:45PM 36.0510 -98.3460 265° West 399 459 32,100  Climbing FlightAware
06:45PM 36.0450 -98.4270 265° West 398 458 32,000 -120 Descending FlightAware
06:46PM 36.0370 -98.5530 266° West 397 457 32,000  Level FlightAware
06:47PM 36.0290 -98.6610 265° West 396 456 32,000  Level FlightAware
06:48PM 36.0220 -98.7690 265° West 396 456 32,000  Level FlightAware
06:49PM 36.0140 -98.8700 264° West 396 456 32,000  Level FlightAware
06:49PM 36.0070 -98.9640 265° West 396 456 32,000  Level FlightAware
06:50PM 36.0040 -99.0160 266° West 396 456 32,000  Level FlightAware
06:51PM 35.9940 -99.1490 265° West 396 456 32,000  Level FlightAware
06:51PM 35.9870 -99.2380 264° West 396 456 32,000  Level FlightAware
06:52PM 35.9770 -99.3680 265° West 397 457 32,000  Level FlightAware
06:53PM 35.9690 -99.4810 265° West 397 457 32,000  Level FlightAware
06:54PM 35.9590 -99.6080 264° West 399 459 32,000  Level FlightAware
06:55PM 35.9500 -99.7220 264° West 401 461 32,000  Level FlightAware
06:56PM 35.9450 -99.7920 265° West 401 461 32,000  Level FlightAware
06:57PM 35.9330 -99.9360 264° West 401 461 32,000  Level FlightAware
06:57PM 35.9250 -100.0390 265° West 401 461 32,000  Level FlightAware
06:58PM 35.9160 -100.1370 264° West 401 461 32,000  Level FlightAware
06:59PM 35.9050 -100.2750 264° West 400 460 32,000  Level FlightAware
07:00PM 35.8930 -100.4120 264° West 400 460 32,000  Level FlightAware
07:01PM 35.8840 -100.5190 264° West 400 460 32,000  Level FlightAware
07:01PM 35.8800 -100.5740 265° West 400 460 32,000  Level FlightAware
07:02PM 35.8680 -100.7100 264° West 401 461 32,000  Level FlightAware
07:03PM 35.8570 -100.8290 264° West 400 460 32,000  Level FlightAware
07:04PM 35.8450 -100.9660 264° West 399 459 32,000  Level FlightAware
07:05PM 35.8370 -101.0530 264° West 398 458 32,000  Level FlightAware
07:06PM 35.8270 -101.1620 264° West 398 458 32,000  Level FlightAware
07:06PM 35.8170 -101.2780 264° West 400 460 32,000  Level FlightAware
07:07PM 35.8080 -101.3680 263° West 403 464 32,000  Level FlightAware
07:08PM 35.8000 -101.4750 265° West 403 464 32,000  Level FlightAware
07:09PM 35.7920 -101.5850 265° West 402 463 32,000  Level FlightAware
07:09PM 35.7860 -101.6580 264° West 402 463 32,000  Level FlightAware
07:10PM 35.7770 -101.7750 265° West 401 461 32,000  Level FlightAware
07:11PM 35.7690 -101.8800 265° West 400 460 32,000  Level FlightAware
07:12PM 35.7560 -102.0320 264° West 401 461 32,000  Level FlightAware
07:13PM 35.7460 -102.1620 265° West 404 465 32,000  Level FlightAware
07:14PM 35.7370 -102.2650 264° West 404 465 32,000  Level FlightAware
07:14PM 35.7290 -102.3660 264° West 405 466 32,000  Level FlightAware
07:15PM 35.7180 -102.5000 264° West 406 467 32,000  Level FlightAware
07:16PM 35.7080 -102.6130 264° West 406 467 32,000  Level FlightAware
07:17PM 35.6940 -102.7770 264° West 405 466 32,000  Level FlightAware
07:19PM 35.6810 -102.9310 264° West 405 466 32,000  Level FlightAware
07:19PM 35.6700 -103.0490 263° West 405 466 32,000  Level FlightAware
07:20PM 35.6580 -103.1790 264° West 405 466 32,000  Level FlightAware
07:21PM 35.6510 -103.2640 264° West 406 467 32,000  Level FlightAware
07:22PM 35.6390 -103.3980 264° West 407 468 32,000  Level FlightAware
07:23PM 35.6290 -103.5000 263° West 407 468 32,000  Level FlightAware
07:24PM 35.6170 -103.6330 264° West 408 470 32,000  Level FlightAware
07:24PM 35.6050 -103.7510 263° West 409 471 32,000  Level FlightAware
07:25PM 35.5950 -103.8630 264° West 410 472 32,000  Level FlightAware
07:26PM 35.5830 -103.9880 263° West 411 473 32,000  Level FlightAware
07:27PM 35.5710 -104.1040 263° West 411 473 32,000  Level FlightAware
07:28PM 35.5610 -104.2140 264° West 411 473 32,000  Level FlightAware
07:29PM 35.5470 -104.3450 263° West 411 473 32,000  Level FlightAware
07:29PM 35.5370 -104.4490 263° West 411 473 32,000  Level FlightAware
07:30PM 35.5240 -104.5740 263° West 412 474 32,000  Level FlightAware
07:31PM 35.5120 -104.6960 263° West 414 476 32,000  Level FlightAware
07:32PM 35.4990 -104.8180 263° West 417 480 32,000  Level FlightAware
07:33PM 35.4860 -104.9410 263° West 418 481 32,000 60 Level FlightAware
07:34PM 35.4740 -105.0530 263° West 417 480 32,100  Climbing FlightAware
07:34PM 35.4640 -105.1450 262° West 417 480 32,000 -120 Descending FlightAware
07:35PM 35.4560 -105.2230 263° West 418 481 32,000  Level FlightAware
07:36PM 35.4420 -105.3510 262° West 415 478 32,000  Level FlightAware
07:37PM 35.4300 -105.4640 263° West 418 481 32,000  Level FlightAware
07:37PM 35.4220 -105.5350 262° West 419 482 32,000  Level FlightAware
07:38PM 35.4150 -105.5960 262° West 420 483 32,000  Level FlightAware
07:38PM 35.4050 -105.6850 262° West 421 484 32,000  Level FlightAware
07:39PM 35.3930 -105.7940 262° West 422 486 32,000  Level FlightAware
07:40PM 35.3790 -105.9140 262° West 423 487 32,000  Level FlightAware
07:41PM 35.3680 -106.0160 262° West 423 487 32,000  Level FlightAware
07:42PM 35.3500 -106.1670 262° West 422 486 32,000  Level FlightAware
07:43PM 35.3360 -106.2900 262° West 419 482 32,000  Level FlightAware
07:43PM 35.3230 -106.4030 262° West 415 478 32,000  Level FlightAware
07:44PM 35.3090 -106.5150 261° West 420 483 32,000 720 Level FlightAware
07:45PM 35.3000 -106.5900 262° West 410 472 33,000 1,860 Climbing FlightAware
07:45PM 35.2930 -106.6500 262° West 400 460 33,900 660 Climbing FlightAware
07:46PM 35.2780 -106.7800 262° West 409 471 34,000  Climbing FlightAware
07:47PM 35.2610 -106.9190 262° West 410 472 34,000  Level FlightAware
07:48PM 35.2530 -106.9800 261° West 409 471 34,000  Level FlightAware
07:48PM 35.2390 -107.0910 261° West 410 472 34,000  Level FlightAware
07:49PM 35.2320 -107.1500 262° West 409 471 34,000  Level FlightAware
07:50PM 35.2190 -107.2550 261° West 409 471 34,000  Level FlightAware
07:50PM 35.2100 -107.3300 262° West 411 473 34,000  Level FlightAware
07:51PM 35.1990 -107.4110 261° West 412 474 34,000  Level FlightAware
07:51PM 35.1910 -107.4770 262° West 412 474 34,000  Level FlightAware
07:52PM 35.1840 -107.5350 262° West 415 478 34,000  Level FlightAware
07:53PM 35.1660 -107.6750 261° West 415 478 34,000  Level FlightAware
07:53PM 35.1520 -107.7820 261° West 416 479 34,000 60 Level FlightAware
07:54PM 35.1370 -107.8980 261° West 416 479 34,100  Climbing FlightAware
07:55PM 35.1220 -108.0110 261° West 415 478 34,000 -120 Descending FlightAware
07:55PM 35.1150 -108.0660 261° West 414 476 34,000  Level FlightAware
07:56PM 35.0990 -108.1860 261° West 414 476 34,000  Level FlightAware
07:57PM 35.0870 -108.2810 261° West 414 476 34,000  Level FlightAware
07:58PM 35.0720 -108.3980 261° West 414 476 34,000  Level FlightAware
07:59PM 35.0660 -108.4460 261° West 414 476 34,000  Level FlightAware
07:59PM 35.0530 -108.5400 260° West 414 476 34,000  Level FlightAware
08:00PM 35.0410 -108.6340 261° West 414 476 34,000  Level FlightAware
08:01PM 35.0320 -108.7050 261° West 414 476 34,000  Level FlightAware
08:03PM 34.9770 -109.0720 260° West 416 479 34,000  Level FlightAware
08:03PM 34.9660 -109.1450 260° West 416 479 34,000 60 Level FlightAware
08:04PM 34.9190 -109.2830 247° West 408 470 34,100  Climbing FlightAware
08:05PM 34.8790 -109.3920 246° West 405 466 34,000 -120 Descending FlightAware
08:06PM 34.8450 -109.4860 246° West 401 461 34,000  Level FlightAware
08:06PM 34.8190 -109.5540 245° Southwest 399 459 34,000  Level FlightAware
08:07PM 34.7990 -109.6110 247° West 398 458 34,000 -180 Level FlightAware
08:08PM 34.7570 -109.7250 246° West 401 461 33,800 -600 Descending FlightAware
08:09PM 34.7140 -109.8390 245° Southwest 403 464 32,900 -1,020 Descending FlightAware
08:10PM 34.6750 -109.9450 246° West 405 466 32,100 -780 Descending FlightAware
08:10PM 34.6580 -109.9900 245° Southwest 407 468 32,000 -120 Descending FlightAware
08:11PM 34.6290 -110.0690 246° West 405 466 32,000  Level FlightAware
08:11PM 34.5990 -110.1490 246° West 405 466 32,000 -180 Level FlightAware
08:12PM 34.5480 -110.2840 245° Southwest 401 461 31,700 -540 Descending FlightAware
08:13PM 34.5100 -110.3860 246° West 390 449 31,000 -1,260 Descending FlightAware
08:14PM 34.4720 -110.4860 245° Southwest 379 436 29,600 -1,860 Descending FlightAware
08:15PM 34.4330 -110.5870 245° Southwest 377 434 27,800 -2,100 Descending FlightAware
08:16PM 34.3920 -110.6960 246° West 374 430 25,800 -2,100 Descending FlightAware
08:17PM 34.3420 -110.8090 242° Southwest 366 421 23,700 -1,800 Descending FlightAware
08:18PM 34.2860 -110.8830 228° Southwest 357 411 22,200 -1,560 Descending FlightAware
08:18PM 34.2520 -110.9270 227° Southwest 353 406 21,400 -1,740 Descending FlightAware
08:19PM 34.1880 -111.0090 227° Southwest 346 398 19,700 -1,740 Descending FlightAware
08:20PM 34.1310 -111.0840 227° Southwest 344 396 18,300 -1,680 Descending FlightAware
08:21PM 34.0900 -111.1360 226° Southwest 339 390 17,200 -1,860 Descending FlightAware
08:21PM 34.0500 -111.1870 227° Southwest 334 384 16,200 -1,800 Descending FlightAware
08:22PM 33.9970 -111.2560 227° Southwest 335 386 14,800 -1,500 Descending FlightAware
08:23PM 33.9510 -111.3130 226° Southwest 332 382 13,700 -1,500 Descending FlightAware
08:24PM 33.9080 -111.3680 227° Southwest 326 375 12,600 -1,620 Descending FlightAware
08:25PM 33.8380 -111.4400 221° Southwest 299 344 10,900 -1,500 Descending FlightAware
08:25PM 33.8090 -111.4650 216° Southwest 295 339 10,300 -1,440 Descending FlightAware
08:26PM 33.7750 -111.4950 216° Southwest 289 333 9,600 -1,440 Descending FlightAware
08:26PM 33.7330 -111.5310 215° Southwest 284 327 8,700 -1,260 Descending FlightAware
08:27PM 33.7110 -111.5500 216° Southwest 278 320 8,300 -840 Descending FlightAware
08:27PM 33.6810 -111.5760 216° Southwest 259 298 8,000 -480 Descending FlightAware
08:28PM 33.6610 -111.5930 215° Southwest 241 277 7,900 -120 Descending FlightAware
08:28PM 33.6340 -111.6160 215° Southwest 234 269 7,900 -180 Level FlightAware
08:29PM 33.6010 -111.6440 215° Southwest 216 249 7,700 -600 Descending FlightAware
08:29PM 33.5820 -111.6590 213° Southwest 213 245 7,300 -1,320 Descending FlightAware
08:30PM 33.5540 -111.6820 214° Southwest 209 241 6,500 -1,200 Descending FlightAware
08:30PM 33.5300 -111.7030 216° Southwest 205 236 6,000 -660 Descending FlightAware
08:31PM 33.5110 -111.7190 215° Southwest 190 219 5,900 -180 Descending FlightAware
08:31PM 33.4990 -111.7290 215° Southwest 193 222 5,900 -660 Level FlightAware
08:31PM 33.4740 -111.7550 221° Southwest 193 222 5,300 -1,020 Descending FlightAware
08:32PM 33.4630 -111.7770 239° Southwest 195 224 4,900 -1,260 Descending FlightAware
08:32PM 33.4490 -111.8040 238° Southwest 197 227 4,200 -1,440 Descending FlightAware
08:33PM 33.4410 -111.8360 253° West 201 231 3,500 -1,140 Descending FlightAware
08:33PM 33.4410 -111.8720 270° West 175 201 3,000 -960 Descending FlightAware
08:34PM 33.4410 -111.9000 270° West 158 182 2,500 -1,080 Descending FlightAware
08:34PM 33.4410 -111.9240 270° West 153 176 2,100 -1,020 Descending FlightAware
08:35PM 33.4410 -111.9360 270° West 151 174 1,900 -720 Descending FlightAware
08:35PM 33.4410 -111.9510 270° West 147 169 1,700 -720 Descending FlightAware
08:35PM 33.4410 -111.9780 270° West 143 165 1,300 -720 Descending FlightAware
08:36PM 33.4410 -111.9920 270° West 144 166 1,100 -300 Descending FlightAware
08:36PM 33.4410 -112.0090 270° West 144 166 1,100  Level FlightAware